Bois Blanc Island, Michigan
Current Conditions -  °F | °C
As of 12:17 PM on Sunday 23 Nov 2014 (Local Time) from KSLH Reporting Station
Haze Haze  
Wind Chill: 45°   Ceiling: 1100
Heat Index: 45°   Visibility: 2.5mi
Dew Point: 45°   Wind: 0mph
Humidity: 100%   Direction: NA
Pressure: 29.68"   Gusts: NA
Location:  45.7694°N, 84.4636°W
Report Text: KSLH 231717Z AUTO 00000KT 2 1/2SM BR SCT005 OVC011 07/07 A2968 RMK AO2 T00700070
Loading
Personal Weather Stations






























Interactive Weather Map New forecast layout! Learn more

10-Day Weather Forecast

Advertisements
Track Severe Weather on mobile